Terminal Aerodrome Forecast
Issued by NWS Sioux Falls, SD

Home | Current Version | Previous Version | Text Only | Print | Product List | Glossary On
Versions: 1 2 3 4 5 6 7 8 9 10 11 12 13 14 15 16 17 18 19 20 21 22 23 24 25 26 27 28 29 30 31 32 33
521
FTUS43 KFSD 232356
TAFSUX
TAF
KSUX 232356Z 2400/2424 16015KT P6SM VCTS OVC070CB
     FM240100 17005KT P6SM BKN110
     FM241000 17004KT 5SM BR BKN120
     FM241200 VRB03KT P6SM BKN080
     FM241700 13005KT P6SM SCT200=

USA.gov is the U.S. government's official web portal to all federal, state and local government web resources and services.